Terminal Aerodrome Forecast
Issued by NWS Charleston, WV

Current Version | Previous Version | Graphics & Text | Print | Product List | Glossary On
Versions: 1 2 3 4 5 6 7 8 9 10 11 12 13 14 15 16 17 18 19 20 21 22 23 24 25 26 27 28 29 30 31
000
FTUS41 KRLX 220500
TAFBKW
TAF
KBKW 220540Z 2206/2306 32005KT P6SM SCT004 OVC009
     FM221500 32009KT P6SM OVC015
     FM222200 33009KT P6SM OVC020
     FM230300 33007KT P6SM BKN010=

USA.gov is the U.S. government's official web portal to all federal, state and local government web resources and services.